Time;durP1;ratioP1;P1;durP2;ratioP2;P2;SDS_P1;SDS_P2;PMS_P1;PMS_P2;Temp;Humidity;BMP_temperature;BMP_pressure;BME280_temperature;BME280_humidity;BME280_pressure;Samples;Min_cycle;Max_cycle;Signal;HPM_P1;HPM_P2
2023/07/05 00:00:16;;;;;;;3.27;2.83;;;22.40;99.90;;;;;;5030081;28;20694;-68
2023/07/05 00:02:42;;;;;;;3.37;2.80;;;22.40;99.90;;;;;;5022094;28;20308;-68
2023/07/05 00:05:08;;;;;;;3.60;3.13;;;22.40;99.90;;;;;;5022067;28;20266;-68
2023/07/05 00:07:33;;;;;;;4.43;3.13;;;22.40;99.90;;;;;;5024213;28;20195;-68
2023/07/05 00:09:59;;;;;;;4.73;3.00;;;22.40;99.90;;;;;;5020288;28;20213;-68
2023/07/05 00:12:25;;;;;;;3.53;2.80;;;22.50;99.90;;;;;;5024363;28;20443;-67
2023/07/05 00:14:51;;;;;;;4.07;3.37;;;22.40;99.90;;;;;;5016756;28;20212;-67
2023/07/05 00:17:17;;;;;;;4.67;3.30;;;22.00;99.90;;;;;;5022179;28;20519;-68
2023/07/05 00:19:42;;;;;;;7.00;3.03;;;21.60;99.90;;;;;;5018171;28;20266;-68
2023/07/05 00:22:08;;;;;;;5.97;3.30;;;21.50;99.90;;;;;;5024731;28;20193;-68
2023/07/05 00:24:34;;;;;;;3.67;2.97;;;21.30;99.90;;;;;;5015169;28;20287;-68
2023/07/05 00:26:59;;;;;;;6.23;2.90;;;21.20;99.90;;;;;;5016673;28;20188;-68
2023/07/05 00:29:26;;;;;;;3.50;2.43;;;20.90;99.90;;;;;;5023050;28;20777;-68
2023/07/05 00:31:52;;;;;;;4.60;3.20;;;20.70;99.90;;;;;;5025954;28;20280;-68
2023/07/05 00:34:18;;;;;;;3.20;2.73;;;20.70;99.90;;;;;;5020916;28;20978;-68
2023/07/05 00:36:44;;;;;;;5.80;3.77;;;20.50;99.90;;;;;;5024314;28;20272;-68
2023/07/05 00:39:09;;;;;;;4.00;2.90;;;20.50;99.90;;;;;;5021141;28;21186;-68
2023/07/05 00:41:35;;;;;;;4.43;2.80;;;20.50;99.90;;;;;;5024981;28;20228;-68
2023/07/05 00:44:01;;;;;;;5.87;3.17;;;20.50;99.90;;;;;;5023745;28;20213;-68
2023/07/05 00:46:30;;;;;;;5.47;3.50;;;20.50;99.90;;;;;;5021619;28;20419;-68
2023/07/05 00:49:13;;;;;;;8.83;4.13;;;20.50;99.90;;;;;;5020311;28;20693;-68
2023/07/05 00:51:51;;;;;;;5.80;3.70;;;20.50;99.90;;;;;;5016081;28;20439;-68
2023/07/05 00:54:23;;;;;;;4.97;3.67;;;20.50;99.90;;;;;;5017537;28;20535;-68
2023/07/05 00:57:00;;;;;;;3.77;3.33;;;20.20;99.90;;;;;;5007805;28;20423;-68
2023/07/05 00:59:30;;;;;;;4.37;3.20;;;20.00;99.90;;;;;;5017545;28;20460;-68
2023/07/05 01:01:56;;;;;;;4.00;3.03;;;20.00;99.90;;;;;;5020606;28;20446;-68
2023/07/05 01:04:22;;;;;;;5.20;3.37;;;19.80;99.90;;;;;;5024526;28;21433;-68
2023/07/05 01:06:48;;;;;;;4.90;3.27;;;19.60;99.90;;;;;;5023752;28;20680;-68
2023/07/05 01:09:13;;;;;;;5.10;3.60;;;19.40;99.90;;;;;;5021442;28;20463;-68
2023/07/05 01:11:58;;;;;;;5.60;3.20;;;19.40;99.90;;;;;;5020939;28;20196;-68
2023/07/05 01:14:52;;;;;;;7.17;2.97;;;19.20;99.90;;;;;;5017336;28;20192;-68
2023/07/05 01:17:33;;;;;;;4.93;3.03;;;19.20;99.90;;;;;;5005984;28;20450;-68
2023/07/05 01:20:10;;;;;;;4.07;3.47;;;19.20;99.90;;;;;;5022190;28;20776;-68
2023/07/05 01:22:44;;;;;;;8.17;3.30;;;19.20;99.90;;;;;;5015817;28;20812;-68
2023/07/05 01:25:16;;;;;;;4.30;3.40;;;19.30;99.90;;;;;;5014049;28;20476;-68
2023/07/05 01:27:56;;;;;;;5.90;3.33;;;19.30;99.90;;;;;;5022699;28;20427;-68
2023/07/05 01:30:33;;;;;;;10.57;4.90;;;19.30;99.90;;;;;;5019864;28;20443;-68
2023/07/05 01:33:20;;;;;;;8.23;4.63;;;19.20;99.90;;;;;;5016154;28;20459;-68
2023/07/05 01:35:50;;;;;;;12.00;4.30;;;19.30;99.90;;;;;;5024394;28;20431;-68
2023/07/05 01:38:16;;;;;;;5.50;3.90;;;19.40;99.90;;;;;;5022023;28;20561;-68
2023/07/05 01:40:45;;;;;;;6.13;3.77;;;19.30;99.90;;;;;;5020810;28;20983;-68
2023/07/05 01:43:13;;;;;;;4.60;3.67;;;19.40;99.90;;;;;;5021751;28;20180;-68
2023/07/05 01:46:06;;;;;;;8.63;3.70;;;19.40;99.90;;;;;;5019956;28;20448;-68
2023/07/05 01:48:38;;;;;;;4.57;3.47;;;19.40;99.90;;;;;;5018293;28;20469;-68
2023/07/05 01:51:10;;;;;;;8.07;3.87;;;19.30;99.90;;;;;;5024295;28;20435;-68
2023/07/05 01:53:47;;;;;;;6.40;3.67;;;19.40;99.90;;;;;;5019952;28;20470;-68
2023/07/05 01:56:20;;;;;;;5.23;3.63;;;19.50;99.90;;;;;;5021707;28;20431;-68
2023/07/05 01:58:50;;;;;;;5.70;3.87;;;19.60;99.90;;;;;;5022744;28;20450;-68
2023/07/05 02:01:17;;;;;;;5.83;3.93;;;19.60;99.90;;;;;;5018693;28;20933;-68
2023/07/05 02:03:44;;;;;;;5.97;4.00;;;19.60;99.90;;;;;;5021095;28;20471;-68
2023/07/05 02:06:11;;;;;;;6.50;3.03;;;19.60;99.90;;;;;;5021644;28;20447;-68
2023/07/05 02:08:39;;;;;;;5.17;3.53;;;19.60;99.90;;;;;;5009653;28;20572;-68
2023/07/05 02:11:05;;;;;;;5.20;4.17;;;19.70;99.90;;;;;;5018523;28;20965;-68
2023/07/05 02:13:31;;;;;;;6.20;4.30;;;19.70;99.90;;;;;;5021565;28;20933;-69
2023/07/05 02:15:57;;;;;;;5.40;4.07;;;19.80;99.90;;;;;;5013952;28;20221;-68
2023/07/05 02:18:22;;;;;;;6.30;3.60;;;19.90;99.90;;;;;;5014676;28;20517;-68
2023/07/05 02:20:48;;;;;;;4.97;3.23;;;19.90;99.90;;;;;;5024771;28;20561;-68
2023/07/05 02:23:13;;;;;;;5.70;3.80;;;19.90;99.90;;;;;;5020507;28;20635;-68
2023/07/05 02:25:40;;;;;;;6.70;3.53;;;19.90;99.90;;;;;;5014698;28;20240;-68
2023/07/05 02:28:07;;;;;;;4.43;3.20;;;20.00;99.90;;;;;;5018060;28;20204;-68
2023/07/05 02:30:35;;;;;;;7.93;3.57;;;20.00;99.90;;;;;;5020896;28;20529;-68
2023/07/05 02:33:01;;;;;;;5.37;3.50;;;20.10;99.90;;;;;;5016806;28;21080;-68
2023/07/05 02:35:26;;;;;;;5.70;3.30;;;20.10;99.90;;;;;;5018116;28;20478;-68
2023/07/05 02:37:52;;;;;;;5.30;3.53;;;20.00;99.90;;;;;;5023772;28;20180;-68
2023/07/05 02:40:17;;;;;;;4.10;3.40;;;20.10;99.90;;;;;;5018800;28;20204;-68
2023/07/05 02:42:43;;;;;;;7.67;3.00;;;20.10;99.90;;;;;;5022180;28;20193;-68
2023/07/05 02:45:09;;;;;;;4.50;2.80;;;20.00;99.90;;;;;;5017508;28;20872;-68
2023/07/05 02:47:34;;;;;;;3.77;3.23;;;20.20;99.90;;;;;;5019454;28;20189;-69
2023/07/05 02:50:00;;;;;;;4.73;3.50;;;20.10;99.90;;;;;;5018813;28;20608;-68
2023/07/05 02:52:26;;;;;;;6.53;3.60;;;20.20;99.90;;;;;;5019594;28;20181;-68
2023/07/05 02:54:51;;;;;;;4.80;3.33;;;20.20;99.90;;;;;;5015737;28;20454;-68
2023/07/05 02:57:17;;;;;;;3.27;2.90;;;20.20;99.90;;;;;;5022958;28;20192;-68
2023/07/05 02:59:42;;;;;;;4.43;2.97;;;20.20;99.90;;;;;;5014386;28;20593;-68
2023/07/05 03:02:10;;;;;;;7.37;3.13;;;20.10;99.90;;;;;;5021456;28;20673;-68
2023/07/05 03:04:36;;;;;;;6.73;3.70;;;20.10;99.90;;;;;;5019734;28;20287;-68
2023/07/05 03:07:02;;;;;;;3.47;3.10;;;20.10;99.90;;;;;;5022198;28;20423;-69
2023/07/05 03:09:28;;;;;;;5.73;3.73;;;20.20;99.90;;;;;;5015748;28;20520;-69
2023/07/05 03:11:53;;;;;;;4.23;2.80;;;20.20;99.90;;;;;;5017769;28;20200;-68
2023/07/05 03:14:19;;;;;;;8.53;3.70;;;20.30;99.90;;;;;;5015534;28;20197;-68
2023/07/05 03:16:44;;;;;;;5.03;3.53;;;20.20;99.90;;;;;;5018147;28;20208;-68
2023/07/05 03:19:10;;;;;;;5.00;3.20;;;20.10;99.90;;;;;;5015972;28;20900;-68
2023/07/05 03:21:35;;;;;;;4.07;3.23;;;20.20;99.90;;;;;;5019897;28;20255;-68
2023/07/05 03:24:01;;;;;;;6.90;3.23;;;20.30;99.90;;;;;;5017371;28;20203;-68
2023/07/05 03:26:26;;;;;;;9.23;3.30;;;20.20;99.90;;;;;;5019032;28;20188;-68
2023/07/05 03:28:52;;;;;;;4.70;3.37;;;20.30;99.90;;;;;;5021596;28;20294;-68
2023/07/05 03:31:18;;;;;;;5.60;3.27;;;20.20;99.90;;;;;;5014851;28;20958;-68
2023/07/05 03:33:44;;;;;;;6.93;3.70;;;20.30;99.90;;;;;;5024647;28;20224;-68
2023/07/05 03:36:13;;;;;;;6.77;3.50;;;20.30;99.90;;;;;;5021923;28;20580;-68
2023/07/05 03:38:39;;;;;;;5.70;3.57;;;20.30;99.90;;;;;;5018228;28;20496;-68
2023/07/05 03:41:07;;;;;;;4.30;3.53;;;20.40;99.90;;;;;;5020364;28;20423;-68
2023/07/05 03:43:38;;;;;;;5.73;3.13;;;20.40;99.90;;;;;;5017379;28;20950;-68
2023/07/05 03:46:05;;;;;;;5.30;3.73;;;20.30;99.90;;;;;;5018884;28;20450;-68
2023/07/05 03:48:35;;;;;;;4.40;3.30;;;20.30;99.90;;;;;;5020920;28;20962;-68
2023/07/05 03:51:00;;;;;;;3.53;2.67;;;20.40;99.90;;;;;;5018879;28;20430;-68
2023/07/05 03:53:26;;;;;;;6.03;3.67;;;20.50;99.90;;;;;;5014779;28;20474;-68
2023/07/05 03:55:52;;;;;;;5.30;3.10;;;20.50;99.90;;;;;;5018201;28;20269;-69
2023/07/05 03:58:18;;;;;;;4.73;3.77;;;20.50;99.90;;;;;;5019424;28;20207;-68
2023/07/05 04:00:44;;;;;;;4.50;3.00;;;20.40;99.90;;;;;;5021707;28;20181;-68
2023/07/05 04:03:10;;;;;;;5.57;3.10;;;20.50;99.90;;;;;;5018199;28;20180;-68
2023/07/05 04:05:36;;;;;;;6.53;3.07;;;20.50;99.90;;;;;;5025073;28;20462;-68
2023/07/05 04:08:01;;;;;;;3.53;2.50;;;20.50;99.90;;;;;;5017208;28;20961;-68
2023/07/05 04:10:27;;;;;;;4.47;3.33;;;20.60;99.90;;;;;;5017934;28;20343;-68
2023/07/05 04:12:53;;;;;;;3.97;3.07;;;20.60;99.90;;;;;;5019916;28;20276;-68
2023/07/05 04:15:19;;;;;;;4.60;3.30;;;20.60;99.90;;;;;;5016230;28;20196;-68
2023/07/05 04:17:45;;;;;;;3.10;2.60;;;20.60;99.90;;;;;;5018812;28;20554;-68
2023/07/05 04:20:11;;;;;;;3.70;3.20;;;20.60;99.90;;;;;;5014975;28;20453;-68
2023/07/05 04:22:39;;;;;;;3.57;3.13;;;20.60;99.90;;;;;;5016584;28;20925;-68
2023/07/05 04:25:05;;;;;;;5.17;3.20;;;20.70;99.90;;;;;;5013204;28;20470;-68
2023/07/05 04:27:31;;;;;;;4.47;3.10;;;20.70;99.90;;;;;;5018096;28;20423;-68
2023/07/05 04:29:56;;;;;;;3.47;2.93;;;20.60;99.90;;;;;;5017341;28;20808;-68
2023/07/05 04:32:22;;;;;;;6.60;3.37;;;20.60;99.90;;;;;;5020044;28;21131;-68
2023/07/05 04:34:47;;;;;;;4.83;3.27;;;20.60;99.90;;;;;;5021932;28;20271;-68
2023/07/05 04:37:13;;;;;;;5.43;3.00;;;20.60;99.90;;;;;;5017303;28;20189;-68
2023/07/05 04:39:38;;;;;;;4.03;3.37;;;20.60;99.90;;;;;;5023923;28;20321;-68
2023/07/05 04:42:04;;;;;;;4.50;2.90;;;20.60;99.90;;;;;;5025347;28;20179;-68
2023/07/05 04:44:30;;;;;;;4.80;4.20;;;20.70;99.90;;;;;;5021065;28;21015;-68
2023/07/05 04:46:55;;;;;;;5.10;3.60;;;20.80;99.90;;;;;;5022430;28;20538;-68
2023/07/05 04:49:21;;;;;;;4.10;3.20;;;20.40;99.90;;;;;;5015571;28;20208;-68
2023/07/05 04:51:46;;;;;;;6.03;3.80;;;20.20;99.90;;;;;;5020947;28;20223;-68
2023/07/05 04:54:14;;;;;;;9.00;4.40;;;19.80;99.90;;;;;;5025920;28;20243;-68
2023/07/05 04:56:39;;;;;;;4.33;3.03;;;19.70;99.90;;;;;;5025422;28;20181;-68
2023/07/05 04:59:05;;;;;;;4.50;3.30;;;19.60;99.90;;;;;;5021897;28;20462;-68
2023/07/05 05:01:31;;;;;;;4.23;3.40;;;19.30;99.90;;;;;;5020082;28;20263;-68
2023/07/05 05:03:56;;;;;;;4.83;3.50;;;19.20;99.90;;;;;;5020619;28;20262;-68
2023/07/05 05:06:22;;;;;;;5.03;3.00;;;19.10;99.90;;;;;;5020172;28;20547;-68
2023/07/05 05:08:47;;;;;;;5.13;3.60;;;19.10;99.90;;;;;;5019893;28;20242;-68
2023/07/05 05:11:13;;;;;;;4.00;3.20;;;19.20;99.90;;;;;;5019030;28;20238;-68
2023/07/05 05:13:38;;;;;;;5.57;3.30;;;19.20;99.90;;;;;;5024357;28;20258;-68
2023/07/05 05:16:05;;;;;;;4.13;2.43;;;19.20;99.90;;;;;;5017590;28;20636;-69
2023/07/05 05:18:32;;;;;;;4.77;3.50;;;19.20;99.90;;;;;;5020176;28;20582;-68
2023/07/05 05:20:58;;;;;;;4.83;3.03;;;19.20;99.90;;;;;;5022782;28;20442;-68
2023/07/05 05:23:24;;;;;;;4.50;3.43;;;19.10;99.90;;;;;;5025945;28;20427;-68
2023/07/05 05:25:50;;;;;;;5.40;3.40;;;19.20;99.90;;;;;;5019851;28;20436;-68
2023/07/05 05:28:17;;;;;;;5.10;3.70;;;19.20;99.90;;;;;;5013291;28;20977;-66
2023/07/05 05:30:44;;;;;;;4.10;2.97;;;19.30;99.90;;;;;;5018195;28;21132;-66
2023/07/05 05:33:10;;;;;;;6.60;3.30;;;19.40;99.90;;;;;;5024500;28;20909;-66
2023/07/05 05:35:36;;;;;;;4.60;3.30;;;19.50;99.90;;;;;;5017162;28;20477;-66
2023/07/05 05:38:03;;;;;;;5.40;3.20;;;19.50;99.90;;;;;;5013726;28;21784;-66
2023/07/05 05:40:28;;;;;;;7.80;3.47;;;19.50;99.90;;;;;;5016905;28;20180;-66
2023/07/05 05:42:54;;;;;;;6.17;2.90;;;19.40;99.90;;;;;;5018320;28;20641;-66
2023/07/05 05:45:20;;;;;;;3.37;2.60;;;19.30;99.90;;;;;;5020927;28;20204;-66
2023/07/05 05:47:45;;;;;;;4.80;3.30;;;19.30;99.90;;;;;;5018712;28;20260;-66
2023/07/05 05:50:11;;;;;;;6.23;2.70;;;19.30;99.90;;;;;;5015752;28;20185;-66
2023/07/05 05:52:36;;;;;;;2.97;2.33;;;19.40;99.90;;;;;;5021775;28;20224;-66
2023/07/05 05:55:03;;;;;;;5.33;2.80;;;19.50;99.90;;;;;;5012343;28;20231;-67
2023/07/05 05:57:29;;;;;;;4.80;3.10;;;19.60;99.90;;;;;;5012855;28;20215;-67
2023/07/05 05:59:54;;;;;;;5.50;2.50;;;19.60;99.90;;;;;;5022845;28;20458;-67
2023/07/05 06:02:20;;;;;;;3.80;2.17;;;19.60;99.90;;;;;;5018679;28;20430;-67
2023/07/05 06:04:46;;;;;;;3.47;1.80;;;19.50;99.90;;;;;;5019944;28;20242;-66
2023/07/05 06:07:11;;;;;;;3.60;2.37;;;19.40;99.90;;;;;;5020812;28;20924;-67
2023/07/05 06:09:38;;;;;;;6.47;2.50;;;19.30;99.90;;;;;;5024094;28;20223;-68
2023/07/05 06:12:04;;;;;;;3.80;2.43;;;19.20;99.90;;;;;;5019192;28;20195;-67
2023/07/05 06:14:30;;;;;;;3.50;2.97;;;19.30;99.90;;;;;;5014164;28;20510;-67
2023/07/05 06:16:56;;;;;;;3.20;2.50;;;19.20;99.90;;;;;;5018607;28;20448;-67
2023/07/05 06:19:21;;;;;;;5.70;2.90;;;19.20;99.90;;;;;;5021717;28;20255;-67
2023/07/05 06:21:47;;;;;;;4.80;3.30;;;19.30;99.90;;;;;;5017469;28;20371;-67
2023/07/05 06:24:12;;;;;;;4.40;2.90;;;19.30;99.90;;;;;;5019921;28;20212;-67
2023/07/05 06:26:38;;;;;;;4.43;2.30;;;19.20;99.90;;;;;;5023610;28;20176;-67
2023/07/05 06:29:03;;;;;;;4.03;3.10;;;19.20;99.90;;;;;;5019877;28;20545;-67
2023/07/05 06:31:33;;;;;;;18.00;3.60;;;19.20;99.90;;;;;;5014842;28;20178;-67
2023/07/05 06:34:01;;;;;;;4.50;3.30;;;19.00;99.90;;;;;;5024919;28;20183;-67
2023/07/05 06:36:27;;;;;;;4.43;3.17;;;19.00;99.90;;;;;;5021209;28;20447;-66
2023/07/05 06:38:52;;;;;;;8.83;3.20;;;18.90;99.90;;;;;;5019033;28;20461;-66
2023/07/05 06:41:18;;;;;;;7.07;3.37;;;18.80;99.90;;;;;;5017296;28;20207;-66
2023/07/05 06:43:44;;;;;;;4.30;3.47;;;18.80;99.90;;;;;;5019808;28;20194;-66
2023/07/05 06:46:10;;;;;;;5.40;3.00;;;18.70;99.90;;;;;;5022547;28;20234;-66
2023/07/05 06:48:35;;;;;;;5.80;3.47;;;18.90;99.90;;;;;;5019206;28;20532;-66
2023/07/05 06:51:01;;;;;;;6.13;3.10;;;19.10;99.90;;;;;;5020053;28;20644;-67
2023/07/05 06:53:26;;;;;;;4.23;3.10;;;19.10;99.90;;;;;;5013868;28;20186;-67
2023/07/05 06:55:52;;;;;;;4.30;3.60;;;19.20;99.90;;;;;;5021737;28;20207;-67
2023/07/05 06:58:21;;;;;;;5.03;4.23;;;19.00;99.90;;;;;;5015569;28;20205;-66
2023/07/05 07:00:48;;;;;;;5.00;3.43;;;18.90;99.90;;;;;;5020048;28;20204;-66
2023/07/05 07:03:14;;;;;;;5.40;3.80;;;18.90;99.90;;;;;;5024334;28;20901;-66
2023/07/05 07:05:39;;;;;;;5.90;4.37;;;18.90;99.90;;;;;;5016856;28;20463;-66
2023/07/05 07:08:05;;;;;;;8.27;4.00;;;18.80;99.90;;;;;;5023659;28;20279;-66
2023/07/05 07:10:35;;;;;;;8.83;4.53;;;18.70;99.90;;;;;;5017603;28;20243;-66
2023/07/05 07:13:01;;;;;;;7.23;4.07;;;18.60;99.90;;;;;;5021015;28;20662;-66
2023/07/05 07:15:26;;;;;;;5.27;3.93;;;18.60;99.90;;;;;;5016198;28;20504;-66
2023/07/05 07:17:52;;;;;;;5.33;4.33;;;18.60;99.90;;;;;;5018304;28;20443;-66
2023/07/05 07:20:19;;;;;;;5.50;4.70;;;18.40;99.90;;;;;;5019827;28;20189;-66
2023/07/05 07:22:44;;;;;;;7.73;5.00;;;18.30;99.90;;;;;;5019197;28;20298;-66
2023/07/05 07:25:10;;;;;;;7.57;6.17;;;18.30;99.90;;;;;;5015844;28;20474;-66
2023/07/05 07:27:36;;;;;;;7.87;7.10;;;18.50;99.90;;;;;;5015251;28;20204;-65
2023/07/05 07:30:02;;;;;;;6.83;5.97;;;18.60;99.90;;;;;;5016307;28;20581;-66
2023/07/05 07:32:28;;;;;;;7.80;5.83;;;18.70;99.90;;;;;;5012397;28;20184;-65
2023/07/05 07:34:54;;;;;;;5.77;4.60;;;18.80;99.90;;;;;;5017354;28;20423;-66
2023/07/05 07:37:20;;;;;;;5.27;4.60;;;18.70;99.90;;;;;;5017712;28;20215;-68
2023/07/05 07:39:46;;;;;;;6.73;4.57;;;18.70;99.90;;;;;;5018302;28;20953;-66
2023/07/05 07:42:11;;;;;;;10.93;5.20;;;18.70;99.90;;;;;;5018243;28;20658;-66
2023/07/05 07:44:37;;;;;;;6.00;4.43;;;18.60;99.90;;;;;;5027722;28;20940;-67
2023/07/05 07:47:03;;;;;;;7.53;5.50;;;18.50;99.90;;;;;;5016241;28;20191;-67
2023/07/05 07:49:29;;;;;;;6.60;4.60;;;18.50;99.90;;;;;;5012039;28;20679;-67
2023/07/05 07:51:55;;;;;;;6.47;4.90;;;18.60;99.90;;;;;;5018554;28;20459;-68
2023/07/05 07:54:26;;;;;;;6.20;4.53;;;18.70;99.90;;;;;;5021667;28;20193;-68
2023/07/05 07:56:54;;;;;;;7.50;5.40;;;18.80;99.90;;;;;;5022249;28;20927;-67
2023/07/05 07:59:20;;;;;;;6.13;4.47;;;18.80;99.90;;;;;;5012798;28;20482;-68
2023/07/05 08:01:46;;;;;;;6.97;4.87;;;18.80;99.90;;;;;;5022182;28;20431;-69
2023/07/05 08:04:13;;;;;;;6.13;5.07;;;18.90;99.90;;;;;;5024891;28;20508;-69
2023/07/05 08:06:43;;;;;;;5.73;4.53;;;18.80;99.90;;;;;;5023244;28;20442;-67
2023/07/05 08:09:27;;;;;;;5.70;4.70;;;18.90;99.90;;;;;;5017928;28;20457;-67
2023/07/05 08:11:57;;;;;;;7.70;4.90;;;19.00;99.90;;;;;;5025553;28;20453;-67
2023/07/05 08:14:23;;;;;;;6.80;5.03;;;19.10;99.90;;;;;;5022884;28;20426;-67
2023/07/05 08:16:49;;;;;;;7.37;6.23;;;19.20;99.90;;;;;;5018518;28;20442;-67
2023/07/05 08:19:15;;;;;;;5.80;4.63;;;19.30;99.90;;;;;;5024131;28;20887;-67
2023/07/05 08:21:45;;;;;;;5.33;4.60;;;19.20;99.90;;;;;;5017518;28;20184;-67
2023/07/05 08:24:11;;;;;;;6.33;5.07;;;19.20;99.90;;;;;;5016431;28;20835;-67
2023/07/05 08:26:36;;;;;;;12.37;5.73;;;19.20;99.90;;;;;;5018348;28;21087;-67
2023/07/05 08:29:03;;;;;;;9.00;4.97;;;19.40;99.90;;;;;;5019930;28;20532;-67
2023/07/05 08:31:29;;;;;;;10.67;4.37;;;19.50;99.90;;;;;;5019038;28;20227;-66
2023/07/05 08:33:55;;;;;;;6.23;4.80;;;19.60;99.90;;;;;;5028096;28;20435;-66
2023/07/05 08:36:38;;;;;;;6.23;4.40;;;19.70;99.90;;;;;;5020234;28;20435;-67
2023/07/05 08:39:06;;;;;;;5.30;4.37;;;19.70;99.90;;;;;;5023178;28;20234;-67
2023/07/05 08:41:46;;;;;;;6.70;4.40;;;19.60;99.90;;;;;;5017859;28;20443;-66
2023/07/05 08:44:21;;;;;;;5.33;4.27;;;19.70;99.90;;;;;;5024772;28;20521;-68
2023/07/05 08:47:00;;;;;;;5.00;4.20;;;19.70;99.90;;;;;;5022875;28;20509;-68
2023/07/05 08:49:44;;;;;;;6.50;4.63;;;19.70;99.90;;;;;;5017870;28;20470;-69
2023/07/05 08:52:21;;;;;;;5.60;4.07;;;19.70;99.90;;;;;;5020582;28;20414;-68
2023/07/05 08:54:50;;;;;;;8.70;4.00;;;19.70;99.90;;;;;;5023431;28;20597;-68
2023/07/05 08:57:43;;;;;;;5.93;4.43;;;19.60;99.90;;;;;;5020740;28;20435;-66
2023/07/05 09:00:14;;;;;;;6.20;4.80;;;19.60;99.90;;;;;;5014513;28;21169;-67
2023/07/05 09:02:40;;;;;;;9.27;4.97;;;19.70;99.90;;;;;;5021717;28;20416;-67
2023/07/05 09:05:33;;;;;;;5.10;4.10;;;19.80;99.90;;;;;;5018955;28;20478;-67
2023/07/05 09:08:10;;;;;;;7.10;3.87;;;19.80;99.90;;;;;;5024180;28;20279;-67
2023/07/05 09:10:52;;;;;;;5.93;4.40;;;19.70;99.90;;;;;;5020644;28;20858;-66
2023/07/05 09:13:42;;;;;;;6.53;4.50;;;19.70;99.90;;;;;;5016532;28;20458;-67
2023/07/05 09:16:37;;;;;;;5.30;4.30;;;19.60;99.90;;;;;;5020927;28;20439;-67
2023/07/05 09:19:19;;;;;;;5.40;4.30;;;19.70;99.90;;;;;;5025645;28;20768;-67
2023/07/05 09:21:50;;;;;;;5.07;4.57;;;19.80;99.90;;;;;;5017185;28;20523;-67
2023/07/05 09:24:19;;;;;;;5.20;4.20;;;20.00;99.90;;;;;;5013013;28;20516;-68
2023/07/05 09:27:17;;;;;;;10.83;4.40;;;20.10;99.90;;;;;;5015990;28;20443;-68
2023/07/05 09:30:15;;;;;;;5.60;4.10;;;20.20;99.90;;;;;;5005748;28;20828;-67
2023/07/05 09:32:43;;;;;;;4.73;4.27;;;20.20;99.90;;;;;;5018630;28;20450;-67
2023/07/05 09:35:18;;;;;;;6.50;4.30;;;20.30;99.90;;;;;;5024748;28;20436;-68
2023/07/05 09:38:18;;;;;;;6.17;4.03;;;20.40;99.90;;;;;;5025012;28;20986;-66
2023/07/05 09:41:07;;;;;;;6.70;4.60;;;20.50;99.90;;;;;;5008873;28;20914;-66
2023/07/05 09:43:36;;;;;;;5.60;5.00;;;20.50;99.90;;;;;;5023624;28;20439;-66
2023/07/05 09:46:14;;;;;;;6.43;4.80;;;20.60;99.90;;;;;;5018992;28;20489;-67
2023/07/05 09:48:42;;;;;;;5.90;4.90;;;20.70;99.90;;;;;;5016265;28;20457;-67
2023/07/05 09:51:11;;;;;;;6.60;4.60;;;20.40;99.90;;;;;;5023608;28;20844;-67
2023/07/05 09:53:52;;;;;;;5.00;4.50;;;20.20;99.90;;;;;;5019740;28;20441;-66
2023/07/05 09:56:29;;;;;;;8.83;4.27;;;20.30;99.90;;;;;;5018132;28;20550;-66
2023/07/05 09:59:10;;;;;;;6.47;4.27;;;20.20;99.90;;;;;;5021369;28;20482;-66
2023/07/05 10:01:39;;;;;;;8.40;4.70;;;20.10;99.90;;;;;;5023401;28;20440;-66
2023/07/05 10:04:07;;;;;;;5.40;3.90;;;20.10;99.90;;;;;;5028407;28;20455;-67
2023/07/05 10:06:36;;;;;;;6.40;3.50;;;20.20;99.90;;;;;;5021115;28;20442;-66
2023/07/05 10:09:15;;;;;;;5.97;4.30;;;20.10;99.90;;;;;;5020289;28;20833;-66
2023/07/05 10:11:46;;;;;;;5.27;4.50;;;20.00;99.90;;;;;;5016233;28;20434;-67
2023/07/05 10:14:18;;;;;;;4.80;4.27;;;20.20;99.90;;;;;;5014072;28;20423;-67
2023/07/05 10:16:51;;;;;;;4.50;3.80;;;20.20;99.90;;;;;;5014901;28;20427;-67
2023/07/05 10:19:38;;;;;;;5.23;4.10;;;20.30;99.90;;;;;;5016442;28;20485;-67
2023/07/05 10:22:33;;;;;;;6.70;4.93;;;20.30;99.90;;;;;;5015095;28;20439;-67
2023/07/05 10:25:05;;;;;;;4.67;4.00;;;20.30;99.90;;;;;;5013855;28;20557;-66
2023/07/05 10:27:35;;;;;;;6.10;3.80;;;20.30;99.90;;;;;;5014382;28;20767;-67
2023/07/05 10:30:08;;;;;;;3.93;3.43;;;20.20;99.90;;;;;;5020197;28;20428;-67
2023/07/05 10:32:36;;;;;;;5.03;3.43;;;20.10;99.90;;;;;;5014215;28;20423;-68
2023/07/05 10:35:08;;;;;;;4.40;3.33;;;20.20;99.70;;;;;;5018467;28;20484;-68
2023/07/05 10:37:37;;;;;;;4.67;3.40;;;20.30;99.60;;;;;;5018833;28;20521;-68
2023/07/05 10:40:08;;;;;;;5.37;3.50;;;20.40;99.30;;;;;;5018215;28;20535;-65
2023/07/05 10:42:35;;;;;;;3.47;3.00;;;20.60;98.90;;;;;;5017829;28;20423;-65
2023/07/05 10:45:03;;;;;;;3.87;3.47;;;20.60;96.90;;;;;;5019672;28;20570;-66
2023/07/05 10:47:31;;;;;;;4.07;3.40;;;20.60;96.70;;;;;;5013206;28;20435;-67
2023/07/05 10:50:05;;;;;;;4.30;3.90;;;20.60;96.30;;;;;;5014929;28;20570;-67
2023/07/05 10:52:34;;;;;;;5.70;4.17;;;20.70;96.20;;;;;;5013941;28;20435;-67
2023/07/05 10:55:20;;;;;;;4.10;3.70;;;20.60;96.50;;;;;;5017134;28;20432;-67
2023/07/05 10:57:58;;;;;;;5.20;3.90;;;20.60;97.20;;;;;;5020633;28;20546;-67
2023/07/05 11:00:41;;;;;;;8.47;3.33;;;20.70;97.90;;;;;;5016120;28;20784;-67
2023/07/05 11:03:11;;;;;;;4.63;3.73;;;20.90;98.20;;;;;;5017932;28;20442;-67
2023/07/05 11:05:48;;;;;;;4.90;3.90;;;20.90;97.20;;;;;;5018285;28;20467;-67
2023/07/05 11:08:31;;;;;;;4.40;3.60;;;21.00;97.90;;;;;;5016410;28;20457;-68
2023/07/05 11:11:02;;;;;;;4.33;3.80;;;21.10;97.80;;;;;;5013398;28;20450;-68
2023/07/05 11:13:29;;;;;;;5.03;3.87;;;21.10;97.70;;;;;;5021382;28;20919;-68
2023/07/05 11:15:56;;;;;;;6.70;3.30;;;21.20;97.10;;;;;;5021896;28;20421;-68
2023/07/05 11:18:23;;;;;;;5.00;3.20;;;21.30;96.50;;;;;;5014695;28;21180;-68
2023/07/05 11:20:54;;;;;;;5.40;3.80;;;21.40;96.30;;;;;;5017521;28;20218;-68
2023/07/05 11:23:42;;;;;;;3.97;3.50;;;21.50;96.70;;;;;;5027673;28;20446;-68
2023/07/05 11:26:08;;;;;;;5.70;3.80;;;21.60;96.50;;;;;;5018176;28;20443;-67
2023/07/05 11:28:35;;;;;;;4.93;3.93;;;21.70;96.30;;;;;;5018881;28;20490;-67
2023/07/05 11:31:02;;;;;;;5.53;3.37;;;21.80;95.10;;;;;;5011889;28;20552;-67
2023/07/05 11:33:27;;;;;;;4.17;3.33;;;21.80;94.60;;;;;;5017278;28;20806;-67
2023/07/05 11:35:56;;;;;;;3.47;3.00;;;21.90;94.00;;;;;;5024357;28;20431;-67
2023/07/05 11:38:37;;;;;;;4.03;3.43;;;21.80;92.80;;;;;;5020311;28;20218;-68
2023/07/05 11:41:04;;;;;;;4.03;3.27;;;21.80;93.30;;;;;;5014280;28;20425;-67
2023/07/05 11:43:58;;;;;;;3.83;3.30;;;21.90;92.90;;;;;;5020001;28;20811;-68
2023/07/05 11:46:44;;;;;;;4.67;3.90;;;22.20;92.70;;;;;;5012708;28;20494;-67
2023/07/05 11:49:22;;;;;;;6.50;3.50;;;22.40;92.50;;;;;;5015935;28;20468;-68
2023/07/05 11:51:50;;;;;;;4.60;3.63;;;22.50;92.30;;;;;;5020769;28;21053;-67
2023/07/05 11:54:17;;;;;;;7.43;4.00;;;22.50;91.70;;;;;;5015373;28;20844;-67
2023/07/05 11:56:45;;;;;;;7.17;4.00;;;22.50;92.10;;;;;;5016056;28;20466;-67
2023/07/05 11:59:14;;;;;;;4.30;3.50;;;22.50;91.60;;;;;;5018429;28;20438;-67
2023/07/05 12:01:42;;;;;;;3.40;3.10;;;22.70;91.70;;;;;;5016161;28;20459;-67
2023/07/05 12:04:16;;;;;;;6.03;3.30;;;22.80;89.80;;;;;;5018925;28;20466;-67
2023/07/05 12:06:44;;;;;;;5.73;3.43;;;22.70;89.50;;;;;;5011539;28;20501;-67
2023/07/05 12:09:17;;;;;;;4.03;3.20;;;22.90;89.20;;;;;;5021699;28;20435;-68
2023/07/05 12:11:44;;;;;;;3.73;3.17;;;23.30;89.20;;;;;;5013159;28;20558;-67
2023/07/05 12:14:18;;;;;;;4.90;3.83;;;24.00;87.70;;;;;;5020919;28;20963;-67
2023/07/05 12:16:44;;;;;;;4.03;3.20;;;25.20;85.10;;;;;;5014780;28;20497;-68
2023/07/05 12:19:30;;;;;;;3.63;3.17;;;24.90;81.30;;;;;;5021582;28;20542;-68
2023/07/05 12:22:02;;;;;;;6.13;3.70;;;24.30;82.20;;;;;;5014257;28;20497;-67
2023/07/05 12:24:37;;;;;;;4.30;3.70;;;24.20;80.30;;;;;;5012079;28;20472;-66
2023/07/05 12:27:03;;;;;;;5.27;3.70;;;24.40;80.70;;;;;;5019368;28;20446;-67
2023/07/05 12:29:28;;;;;;;8.20;4.10;;;24.70;79.80;;;;;;5018808;28;20869;-66
2023/07/05 12:32:05;;;;;;;4.37;3.80;;;25.20;79.70;;;;;;5020262;28;20506;-67
2023/07/05 12:34:31;;;;;;;4.53;3.80;;;24.80;77.20;;;;;;5016128;28;20551;-66
2023/07/05 12:36:58;;;;;;;4.93;3.50;;;24.70;78.90;;;;;;5013595;28;20422;-66
2023/07/05 12:39:25;;;;;;;5.57;3.87;;;25.00;77.70;;;;;;5020654;28;20365;-67
2023/07/05 12:42:08;;;;;;;5.33;3.47;;;25.20;77.50;;;;;;5016765;28;20436;-66
2023/07/05 12:44:35;;;;;;;8.40;4.13;;;25.50;73.90;;;;;;5020600;28;20499;-67
2023/07/05 12:47:11;;;;;;;5.80;3.40;;;25.20;73.40;;;;;;5013128;28;20444;-67
2023/07/05 12:49:37;;;;;;;5.50;3.67;;;24.70;73.60;;;;;;5015344;28;20457;-67
2023/07/05 12:52:02;;;;;;;4.57;3.77;;;24.80;75.10;;;;;;5019458;28;20507;-68
2023/07/05 12:54:29;;;;;;;4.90;3.40;;;25.00;74.90;;;;;;5019870;28;20283;-67
2023/07/05 12:56:57;;;;;;;4.33;3.33;;;25.30;72.50;;;;;;5023802;28;20191;-67